Time;durP1;ratioP1;P1;durP2;ratioP2;P2;SDS_P1;SDS_P2;PMS_P1;PMS_P2;Temp;Humidity;BMP_temperature;BMP_pressure;BME280_temperature;BME280_humidity;BME280_pressure;Samples;Min_cycle;Max_cycle;Signal;HPM_P1;HPM_P2
2023/03/09 00:03:17;;;;;;;1.02;1.02;;;;;;;0.04;100.00;99204.56;10376334;28;20053;-75
2023/03/09 00:08:17;;;;;;;0.98;0.98;;;;;;;-0.01;100.00;99217.53;10375582;28;20050;-75
2023/03/09 00:13:19;;;;;;;2.45;2.35;;;;;;;0.04;100.00;99223.19;10375861;28;20037;-75
2023/03/09 00:18:20;;;;;;;1.65;1.65;;;;;;;0.13;100.00;99251.44;10357689;28;20061;-75
2023/03/09 00:23:20;;;;;;;0.70;0.70;;;;;;;0.15;100.00;99259.22;10375614;28;20092;-75
2023/03/09 00:28:20;;;;;;;1.25;1.25;;;;;;;0.16;100.00;99260.88;10376826;28;20382;-74
2023/03/09 00:33:21;;;;;;;0.73;0.73;;;;;;;0.16;100.00;99244.91;10373877;28;20040;-74
2023/03/09 00:38:21;;;;;;;1.00;1.00;;;;;;;0.14;100.00;99250.41;10375358;28;20037;-74
2023/03/09 00:43:21;;;;;;;3.15;2.85;;;;;;;0.17;100.00;99252.75;10374860;28;20033;-74
2023/03/09 00:48:22;;;;;;;0.60;0.60;;;;;;;0.08;100.00;99240.47;10375032;28;20470;-74
2023/03/09 00:53:22;;;;;;;0.75;0.75;;;;;;;0.10;100.00;99241.13;10373158;28;20038;-74
2023/03/09 00:58:23;;;;;;;0.70;0.70;;;;;;;0.13;100.00;99238.13;10359125;28;20042;-74
2023/03/09 01:03:23;;;;;;;0.60;0.60;;;;;;;0.15;100.00;99270.72;10373680;28;20069;-74
2023/03/09 01:08:24;;;;;;;3.03;2.35;;;;;;;0.28;100.00;99288.81;10372670;28;20029;-74
2023/03/09 01:13:24;;;;;;;0.70;0.70;;;;;;;0.36;100.00;99317.25;10375289;28;20121;-74
2023/03/09 01:18:24;;;;;;;1.63;1.52;;;;;;;0.42;100.00;99303.25;10374980;28;20508;-74
2023/03/09 01:23:25;;;;;;;0.65;0.65;;;;;;;0.50;100.00;99303.22;10374327;28;20050;-74
2023/03/09 01:28:25;;;;;;;2.00;1.90;;;;;;;0.37;100.00;99284.28;10376820;28;20094;-75
2023/03/09 01:33:26;;;;;;;0.80;0.80;;;;;;;0.31;100.00;99293.78;10358758;28;20113;-74
2023/03/09 01:38:26;;;;;;;0.60;0.60;;;;;;;0.19;100.00;99293.34;10375248;28;20052;-73
2023/03/09 01:43:39;;;;;;;0.60;0.60;;;;;;;0.22;100.00;99335.59;10372855;28;20088;-74
2023/03/09 01:48:39;;;;;;;0.60;0.60;;;;;;;0.22;100.00;99329.41;10374696;28;20114;-74
2023/03/09 01:53:40;;;;;;;0.70;0.70;;;;;;;0.27;100.00;99327.09;10339186;28;20391;-74
2023/03/09 01:58:40;;;;;;;0.60;0.60;;;;;;;0.30;100.00;99315.28;10356404;28;20087;-74
2023/03/09 02:03:42;;;;;;;0.90;0.90;;;;;;;0.25;100.00;99322.94;10374374;28;20062;-74
2023/03/09 02:09:12;;;;;;;0.60;0.60;;;;;;;0.18;100.00;99325.44;10374443;28;20076;-74
2023/03/09 02:14:13;;;;;;;0.80;0.80;;;;;;;0.15;100.00;99323.13;10370343;28;20524;-74
2023/03/09 02:19:21;;;;;;;1.95;1.85;;;;;;;0.10;100.00;99334.28;10383736;28;20057;-74
2023/03/09 02:24:49;;;;;;;1.60;1.60;;;;;;;0.15;100.00;99355.88;10381401;28;20034;-74
2023/03/09 02:29:49;;;;;;;0.70;0.70;;;;;;;0.26;100.00;99375.19;10382535;28;20038;-74
2023/03/09 02:34:50;;;;;;;0.80;0.80;;;;;;;0.21;100.00;99355.22;10382178;28;20084;-74
2023/03/09 02:39:50;;;;;;;0.70;0.70;;;;;;;0.19;100.00;99357.22;10379641;28;20030;-74
2023/03/09 02:44:51;;;;;;;0.70;0.70;;;;;;;0.18;100.00;99350.22;10363261;28;20042;-74
2023/03/09 02:49:51;;;;;;;0.80;0.80;;;;;;;0.18;100.00;99357.38;10361299;28;20116;-74
2023/03/09 02:54:51;;;;;;;1.45;1.45;;;;;;;0.22;100.00;99367.53;10380903;28;20155;-73
2023/03/09 02:59:52;;;;;;;1.00;1.00;;;;;;;0.26;100.00;99377.84;10377521;28;20045;-73
2023/03/09 03:04:52;;;;;;;0.80;0.80;;;;;;;0.26;100.00;99361.88;10381396;28;20030;-73
2023/03/09 03:09:53;;;;;;;0.60;0.60;;;;;;;0.22;100.00;99362.22;10380670;28;20121;-73
2023/03/09 03:14:53;;;;;;;0.70;0.70;;;;;;;0.23;100.00;99381.69;10378431;28;20034;-74
2023/03/09 03:19:54;;;;;;;1.08;1.08;;;;;;;0.25;100.00;99389.47;10379046;28;20057;-73
2023/03/09 03:24:54;;;;;;;0.80;0.80;;;;;;;0.28;100.00;99378.50;10378954;28;20120;-74
2023/03/09 03:29:54;;;;;;;0.70;0.70;;;;;;;0.22;100.00;99370.19;10375578;28;20057;-74
2023/03/09 03:34:55;;;;;;;1.00;1.00;;;;;;;0.26;100.00;99386.66;10378251;28;20057;-73
2023/03/09 03:39:55;;;;;;;0.80;0.80;;;;;;;0.26;100.00;99407.13;10379201;28;20107;-74
2023/03/09 03:44:56;;;;;;;1.92;1.92;;;;;;;0.30;100.00;99417.28;10377080;28;20037;-73
2023/03/09 03:49:56;;;;;;;0.60;0.60;;;;;;;0.30;100.00;99443.91;10377808;28;20037;-73
2023/03/09 03:54:57;;;;;;;0.60;0.60;;;;;;;0.28;100.00;99450.38;10378848;28;20121;-74
2023/03/09 03:59:57;;;;;;;1.45;1.45;;;;;;;0.34;100.00;99455.03;10377821;28;20030;-73
2023/03/09 04:04:57;;;;;;;0.80;0.80;;;;;;;0.28;100.00;99458.38;10376701;28;20393;-73
2023/03/09 04:09:58;;;;;;;0.80;0.80;;;;;;;0.26;100.00;99455.06;10380295;28;20033;-73
2023/03/09 04:14:58;;;;;;;1.65;1.55;;;;;;;0.22;100.00;99462.53;10377681;28;20453;-74
2023/03/09 04:19:59;;;;;;;1.50;1.42;;;;;;;0.27;100.00;99476.19;10376168;28;20474;-73
2023/03/09 04:24:59;;;;;;;0.70;0.70;;;;;;;0.24;100.00;99476.50;10377288;28;20057;-73
2023/03/09 04:30:01;;;;;;;0.63;0.63;;;;;;;0.27;100.00;99494.81;10375607;28;20056;-73
2023/03/09 04:35:01;;;;;;;1.10;1.10;;;;;;;0.28;100.00;99498.31;10375680;28;20040;-73
2023/03/09 04:40:03;;;;;;;0.60;0.60;;;;;;;0.34;100.00;99497.66;10375553;28;20042;-74
2023/03/09 04:45:03;;;;;;;0.60;0.60;;;;;;;0.33;100.00;99507.47;10375382;28;20034;-73
2023/03/09 04:50:04;;;;;;;4.22;2.60;;;;;;;0.41;100.00;99514.63;10374888;28;20120;-73
2023/03/09 04:55:05;;;;;;;0.60;0.60;;;;;;;0.39;100.00;99498.00;10376838;28;20105;-73
2023/03/09 05:00:10;;;;;;;0.70;0.70;;;;;;;0.32;100.00;99488.97;10373752;28;20385;-73
2023/03/09 05:05:10;;;;;;;0.75;0.75;;;;;;;0.34;100.00;99497.66;10375107;28;20034;-73
2023/03/09 05:10:11;;;;;;;0.80;0.80;;;;;;;0.40;100.00;99519.09;10374832;28;20108;-73
2023/03/09 05:15:11;;;;;;;0.50;0.50;;;;;;;0.41;100.00;99519.94;10375797;28;20117;-73
2023/03/09 05:20:13;;;;;;;0.55;0.55;;;;;;;0.40;100.00;99529.75;10375100;28;20100;-73
2023/03/09 05:25:13;;;;;;;0.77;0.77;;;;;;;0.47;100.00;99535.25;10374500;28;20045;-74
2023/03/09 05:30:14;;;;;;;0.80;0.80;;;;;;;0.52;100.00;99548.09;10374909;28;20038;-73
2023/03/09 05:35:14;;;;;;;1.40;1.40;;;;;;;0.52;100.00;99550.75;10374904;28;20061;-73
2023/03/09 05:40:17;;;;;;;1.40;1.40;;;;;;;0.58;100.00;99564.25;10374581;28;20038;-73
2023/03/09 05:45:17;;;;;;;0.52;0.52;;;;;;;0.60;100.00;99554.22;10375640;28;20030;-73
2023/03/09 05:50:18;;;;;;;0.80;0.80;;;;;;;0.60;100.00;99548.91;10357555;28;20536;-73
2023/03/09 05:55:18;;;;;;;0.77;0.77;;;;;;;0.56;100.00;99555.56;10381585;28;20041;-73
2023/03/09 06:00:19;;;;;;;1.55;1.55;;;;;;;0.50;100.00;99564.22;10383093;28;20038;-73
2023/03/09 06:05:19;;;;;;;0.80;0.80;;;;;;;0.46;100.00;99573.56;10381893;28;20381;-73
2023/03/09 06:10:20;;;;;;;2.55;2.35;;;;;;;0.37;100.00;99580.69;10382832;28;20377;-73
2023/03/09 06:15:20;;;;;;;1.42;1.42;;;;;;;0.34;100.00;99593.50;10381320;28;20062;-73
2023/03/09 06:20:20;;;;;;;1.35;1.33;;;;;;;0.43;100.00;99606.66;10382263;28;20128;-73
2023/03/09 06:25:21;;;;;;;0.80;0.80;;;;;;;0.48;100.00;99616.84;10381170;28;20543;-71
2023/03/09 06:30:21;;;;;;;0.63;0.63;;;;;;;0.54;100.00;99634.81;10381899;28;20037;-72
2023/03/09 06:35:22;;;;;;;0.70;0.70;;;;;;;0.60;100.00;99631.47;10364315;28;20041;-71
2023/03/09 06:40:23;;;;;;;0.75;0.75;;;;;;;0.56;100.00;99626.66;10381148;28;20042;-73
2023/03/09 06:45:23;;;;;;;1.05;1.05;;;;;;;0.52;100.00;99649.31;10381110;28;20116;-73
2023/03/09 06:50:24;;;;;;;0.90;0.90;;;;;;;0.68;100.00;99655.50;10380444;28;20452;-72
2023/03/09 06:55:24;;;;;;;0.60;0.60;;;;;;;0.83;100.00;99647.69;10378819;28;20416;-73
2023/03/09 07:00:25;;;;;;;1.77;1.77;;;;;;;0.91;100.00;99661.00;10377766;28;20041;-72
2023/03/09 07:05:25;;;;;;;0.93;0.93;;;;;;;1.00;100.00;99669.84;10378218;28;20115;-73
2023/03/09 07:10:26;;;;;;;1.13;1.13;;;;;;;1.02;100.00;99686.50;10377150;28;20025;-73
2023/03/09 07:15:26;;;;;;;0.93;0.93;;;;;;;0.97;100.00;99702.16;10378903;28;20092;-73
2023/03/09 07:20:27;;;;;;;0.77;0.77;;;;;;;0.95;100.00;99706.81;10377793;28;20085;-72
2023/03/09 07:25:27;;;;;;;0.80;0.80;;;;;;;0.98;100.00;99713.66;10377231;28;20116;-73
2023/03/09 07:30:28;;;;;;;0.80;0.80;;;;;;;1.06;100.00;99733.16;10378545;28;20140;-73
2023/03/09 07:35:28;;;;;;;0.60;0.60;;;;;;;1.27;100.00;99746.00;10360118;28;20038;-73
2023/03/09 07:40:29;;;;;;;1.00;1.00;;;;;;;1.37;100.00;99751.16;10377072;28;20045;-73
2023/03/09 07:45:29;;;;;;;0.68;0.68;;;;;;;1.36;100.00;99744.16;10378149;28;20070;-73
2023/03/09 07:50:29;;;;;;;0.98;0.98;;;;;;;1.32;100.00;99737.50;10377018;28;20465;-73
2023/03/09 07:55:34;;;;;;;3.38;2.47;;;;;;;1.29;100.00;99741.34;10376592;28;20034;-72
2023/03/09 08:00:34;;;;;;;0.70;0.70;;;;;;;1.25;100.00;99758.69;10375094;28;20030;-73
2023/03/09 08:05:34;;;;;;;1.67;1.67;;;;;;;1.30;100.00;99743.00;10376581;28;20389;-73
2023/03/09 08:10:35;;;;;;;4.85;1.65;;;;;;;1.38;100.00;99740.34;10375328;28;20058;-73
2023/03/09 08:15:36;;;;;;;1.23;1.23;;;;;;;1.48;100.00;99748.19;10375389;28;20041;-72
2023/03/09 08:20:36;;;;;;;2.45;2.33;;;;;;;1.48;100.00;99750.03;10375767;28;20057;-72
2023/03/09 08:25:37;;;;;;;0.90;0.90;;;;;;;1.67;100.00;99776.34;10375483;28;20037;-72
2023/03/09 08:30:38;;;;;;;1.25;1.25;;;;;;;1.70;100.00;99792.03;10375197;28;20114;-73
2023/03/09 08:35:39;;;;;;;1.20;1.20;;;;;;;1.82;100.00;99795.22;10374181;28;20385;-73
2023/03/09 08:40:41;;;;;;;3.05;2.95;;;;;;;1.96;100.00;99799.03;10375041;28;20034;-73
2023/03/09 08:45:41;;;;;;;6.80;4.07;;;;;;;1.99;100.00;99790.69;10374105;28;20428;-73
2023/03/09 08:50:42;;;;;;;0.50;0.50;;;;;;;2.10;100.00;99793.81;10375192;28;20029;-73
2023/03/09 08:55:42;;;;;;;32.22;22.55;;;;;;;2.12;100.00;99808.84;10374625;28;20482;-73
2023/03/09 09:00:43;;;;;;;45.45;25.42;;;;;;;2.21;100.00;99805.16;10375340;28;20034;-73
2023/03/09 09:05:43;;;;;;;38.88;25.08;;;;;;;2.28;100.00;99798.13;10373509;28;20038;-73
2023/03/09 09:10:45;;;;;;;38.15;23.83;;;;;;;2.26;100.00;99805.47;10374460;28;20092;-73
2023/03/09 09:15:51;;;;;;;38.72;23.67;;;;;;;2.33;100.00;99817.16;10371919;28;20044;-73
2023/03/09 09:20:51;;;;;;;29.60;22.15;;;;;;;2.39;100.00;99831.66;10375455;28;20389;-73
2023/03/09 09:25:55;;;;;;;46.58;26.85;;;;;;;2.35;100.00;99833.81;10377740;28;20046;-73
2023/03/09 09:30:56;;;;;;;19.40;15.57;;;;;;;2.32;100.00;99843.00;10380797;28;20034;-73
2023/03/09 09:36:09;;;;;;;34.25;21.58;;;;;;;2.21;100.00;99854.06;10380837;28;20030;-73
2023/03/09 09:41:17;;;;;;;30.30;20.98;;;;;;;2.16;100.00;99832.34;10382616;28;20061;-73
2023/03/09 09:46:18;;;;;;;33.85;22.90;;;;;;;2.21;100.00;99840.72;10380602;28;20030;-73
2023/03/09 09:51:36;;;;;;;42.35;23.48;;;;;;;2.24;100.00;99837.69;10380551;28;20038;-73
2023/03/09 09:56:43;;;;;;;46.08;27.10;;;;;;;2.29;100.00;99819.31;10380223;28;20030;-73
2023/03/09 10:02:16;;;;;;;27.33;18.38;;;;;;;2.37;100.00;99818.47;10380168;28;20042;-73
2023/03/09 10:07:17;;;;;;;36.38;25.02;;;;;;;2.44;100.00;99813.28;10366466;28;20021;-73
2023/03/09 10:12:18;;;;;;;39.30;25.20;;;;;;;2.46;100.00;99803.25;10379765;28;20048;-73
2023/03/09 10:17:41;;;;;;;43.55;27.35;;;;;;;2.44;100.00;99807.94;10380090;28;20084;-73
2023/03/09 10:22:41;;;;;;;29.55;21.02;;;;;;;2.31;100.00;99822.66;10377996;28;20050;-73
2023/03/09 10:27:45;;;;;;;36.40;26.80;;;;;;;2.29;100.00;99837.19;10362170;28;20082;-73
2023/03/09 10:32:49;;;;;;;35.63;24.00;;;;;;;2.34;100.00;99824.16;10379898;28;20128;-73
2023/03/09 10:37:50;;;;;;;39.45;25.50;;;;;;;2.51;100.00;99836.44;10379201;28;20125;-73
2023/03/09 10:42:50;;;;;;;41.47;25.17;;;;;;;2.19;100.00;99847.22;10379436;28;20109;-73
2023/03/09 10:47:59;;;;;;;40.38;23.67;;;;;;;2.17;100.00;99846.53;10378146;28;20413;-74
2023/03/09 10:53:29;;;;;;;37.33;20.88;;;;;;;2.11;100.00;99850.75;10378071;28;20421;-73
2023/03/09 10:58:29;;;;;;;28.13;21.95;;;;;;;1.94;100.00;99844.56;10377436;28;20128;-74
2023/03/09 11:03:35;;;;;;;34.85;22.48;;;;;;;1.99;100.00;99834.22;10378454;28;20033;-74
2023/03/09 11:08:35;;;;;;;42.50;25.27;;;;;;;1.99;100.00;99842.22;10376842;28;20025;-73
2023/03/09 11:13:36;;;;;;;43.65;22.48;;;;;;;1.97;100.00;99833.53;10361370;28;20030;-73
2023/03/09 11:18:36;;;;;;;36.75;22.98;;;;;;;1.86;100.00;99847.25;10376276;28;20077;-73
2023/03/09 11:23:42;;;;;;;35.50;17.60;;;;;;;1.81;100.00;99841.56;10377249;28;20434;-73
2023/03/09 11:29:01;;;;;;;40.53;21.60;;;;;;;1.81;100.00;99846.91;10376185;28;20041;-74
2023/03/09 11:34:01;;;;;;;36.28;22.58;;;;;;;1.83;100.00;99839.56;10376502;28;20036;-75
2023/03/09 11:39:03;;;;;;;38.50;24.92;;;;;;;1.93;100.00;99844.75;10375596;28;20036;-75
2023/03/09 11:44:11;;;;;;;40.75;25.27;;;;;;;1.84;100.00;99826.03;10376805;28;20026;-75
2023/03/09 11:49:14;;;;;;;35.58;23.75;;;;;;;1.85;100.00;99825.06;10374496;28;20116;-75
2023/03/09 11:54:26;;;;;;;40.00;24.20;;;;;;;1.73;100.00;99821.06;10377193;28;20457;-75
2023/03/09 11:59:38;;;;;;;45.42;27.67;;;;;;;1.69;100.00;99826.88;10376794;28;20128;-75
2023/03/09 12:04:39;;;;;;;41.58;26.48;;;;;;;1.61;100.00;99823.22;10360600;28;20038;-75
2023/03/09 12:10:04;;;;;;;43.08;25.10;;;;;;;1.54;100.00;99811.53;10376459;28;20053;-75
2023/03/09 12:15:20;;;;;;;45.97;27.00;;;;;;;1.54;100.00;99798.22;10376698;28;20087;-76
2023/03/09 12:20:29;;;;;;;37.53;22.13;;;;;;;1.51;100.00;99795.88;10376365;28;20457;-76
2023/03/09 12:25:30;;;;;;;45.03;25.38;;;;;;;1.33;100.00;99768.50;10376607;28;20361;-78
2023/03/09 12:30:31;;;;;;;43.35;25.85;;;;;;;1.45;100.00;99764.50;10374164;28;20033;-78
2023/03/09 12:35:40;;;;;;;35.28;22.98;;;;;;;1.42;100.00;99746.19;10374555;28;20116;-77
2023/03/09 12:40:41;;;;;;;38.15;26.02;;;;;;;1.54;100.00;99731.50;10373475;28;20130;-77
2023/03/09 12:45:42;;;;;;;49.20;29.73;;;;;;;1.80;100.00;99754.50;10375173;28;20105;-80
2023/03/09 12:50:42;;;;;;;32.92;20.35;;;;;;;1.66;100.00;99756.03;10375991;28;20134;-80
2023/03/09 12:55:53;;;;;;;43.70;27.65;;;;;;;1.73;100.00;99759.69;10378395;28;20057;-79
2023/03/09 13:01:28;;;;;;;49.05;25.65;;;;;;;1.52;100.00;99756.69;10358663;28;20030;-79
2023/03/09 13:06:43;;;;;;;33.50;18.17;;;;;;;1.54;100.00;99763.53;10374172;28;20042;-79
2023/03/09 13:11:50;;;;;;;45.20;27.05;;;;;;;1.41;100.00;99759.69;10357387;28;20062;-79
2023/03/09 13:16:51;;;;;;;38.08;23.33;;;;;;;1.37;100.00;99764.50;10374734;28;20037;-79
2023/03/09 13:21:55;;;;;;;53.30;27.50;;;;;;;1.46;100.00;99760.00;10374647;28;20042;-79
2023/03/09 13:27:08;;;;;;;34.92;17.38;;;;;;;1.55;100.00;99757.19;10377971;28;20056;-79
2023/03/09 13:32:38;;;;;;;41.30;25.45;;;;;;;1.56;100.00;99740.19;10373208;28;20034;-79
2023/03/09 13:37:39;;;;;;;37.53;24.67;;;;;;;1.62;100.00;99722.66;10372115;28;20036;-80
2023/03/09 13:42:39;;;;;;;20.00;14.90;;;;;;;1.62;100.00;99719.97;10356355;28;20033;-80
2023/03/09 13:47:39;;;;;;;36.28;25.65;;;;;;;1.70;100.00;99716.47;10373085;28;20038;-80
2023/03/09 13:52:57;;;;;;;43.05;27.08;;;;;;;1.69;100.00;99712.13;10357045;28;20160;-79
2023/03/09 13:58:17;;;;;;;42.58;24.88;;;;;;;1.85;100.00;99722.78;10363808;28;20434;-79
2023/03/09 14:03:17;;;;;;;34.65;19.65;;;;;;;1.95;100.00;99707.41;10373274;28;20120;-80
2023/03/09 14:08:19;;;;;;;51.65;18.02;;;;;;;1.99;100.00;99702.56;10385847;28;20052;-79
2023/03/09 14:13:21;;;;;;;38.10;26.25;;;;;;;2.07;100.00;99679.34;10394116;28;20026;-80
2023/03/09 14:18:38;;;;;;;20.02;15.73;;;;;;;1.96;100.00;99673.53;10364992;28;20088;-80
2023/03/09 14:23:43;;;;;;;22.65;15.45;;;;;;;1.96;100.00;99676.22;10379694;28;20116;-81
2023/03/09 14:29:01;;;;;;;32.78;19.00;;;;;;;1.95;100.00;99669.22;10381255;28;20044;-80
2023/03/09 14:34:06;;;;;;;25.58;17.70;;;;;;;1.95;100.00;99669.22;10381574;28;20049;-80
2023/03/09 14:39:32;;;;;;;34.30;21.25;;;;;;;1.82;100.00;99656.41;10362049;28;20033;-79
2023/03/09 14:44:34;;;;;;;33.37;21.03;;;;;;;1.78;100.00;99647.06;10364172;28;20061;-79
2023/03/09 14:49:35;;;;;;;20.42;14.52;;;;;;;1.71;100.00;99627.41;10378269;28;20363;-79
2023/03/09 14:54:35;;;;;;;28.70;19.38;;;;;;;1.70;100.00;99615.06;10379936;28;20409;-79
2023/03/09 14:59:35;;;;;;;31.88;21.63;;;;;;;1.78;100.00;99599.84;10366228;28;20096;-79
2023/03/09 15:04:36;;;;;;;22.77;15.82;;;;;;;1.84;100.00;99595.66;10380264;28;20532;-78
2023/03/09 15:09:36;;;;;;;29.20;20.48;;;;;;;1.84;100.00;99588.47;10378432;28;20061;-79
2023/03/09 15:14:38;;;;;;;34.72;20.08;;;;;;;1.83;100.00;99586.00;10378859;28;20033;-79
2023/03/09 15:19:39;;;;;;;29.73;19.75;;;;;;;1.77;100.00;99584.03;10361321;28;20046;-80
2023/03/09 15:24:39;;;;;;;23.92;16.50;;;;;;;1.66;100.00;99579.91;10378353;28;20088;-80
2023/03/09 15:29:40;;;;;;;29.95;18.92;;;;;;;1.69;100.00;99584.91;10385219;28;20088;-80
2023/03/09 15:34:41;;;;;;;30.42;19.55;;;;;;;1.63;100.00;99559.72;10381323;28;20029;-81
2023/03/09 15:39:41;;;;;;;24.25;18.52;;;;;;;1.70;100.00;99551.03;10377997;28;20105;-79
2023/03/09 15:44:41;;;;;;;27.75;16.10;;;;;;;1.72;100.00;99536.47;10377784;28;20044;-79
2023/03/09 15:49:42;;;;;;;34.13;22.05;;;;;;;1.75;100.00;99525.47;10375924;28;20433;-78
2023/03/09 15:54:42;;;;;;;25.63;17.67;;;;;;;1.75;100.00;99519.28;10376863;28;20113;-78
2023/03/09 15:59:43;;;;;;;41.33;19.58;;;;;;;1.68;100.00;99511.16;10377510;28;20103;-78
2023/03/09 16:04:43;;;;;;;25.95;17.75;;;;;;;1.73;100.00;99510.66;10378717;28;20062;-78
2023/03/09 16:09:44;;;;;;;25.55;16.45;;;;;;;1.77;100.00;99509.28;10375861;28;20168;-78
2023/03/09 16:14:44;;;;;;;24.02;15.48;;;;;;;1.71;100.00;99492.13;10375904;28;20030;-78
2023/03/09 16:19:46;;;;;;;31.48;18.98;;;;;;;1.72;100.00;99482.28;10375879;28;20482;-79
2023/03/09 16:24:47;;;;;;;21.85;15.57;;;;;;;1.72;100.00;99490.28;10375299;28;20129;-79
2023/03/09 16:29:47;;;;;;;31.33;17.08;;;;;;;1.79;100.00;99480.59;10375858;28;20034;-78
2023/03/09 16:34:48;;;;;;;13.30;10.73;;;;;;;1.77;100.00;99470.09;10374677;28;20044;-77
2023/03/09 16:39:48;;;;;;;22.48;14.45;;;;;;;1.81;100.00;99475.91;10375301;28;20430;-77
2023/03/09 16:44:53;;;;;;;19.67;11.95;;;;;;;1.86;100.00;99454.84;10375708;28;20061;-77
2023/03/09 16:50:00;;;;;;;17.25;12.75;;;;;;;1.80;100.00;99458.22;10375191;28;20112;-76
2023/03/09 16:55:03;;;;;;;19.25;9.60;;;;;;;1.86;100.00;99446.84;10344591;28;20065;-76
2023/03/09 17:00:04;;;;;;;17.90;14.15;;;;;;;1.93;100.00;99434.44;10375738;28;20041;-77
2023/03/09 17:05:05;;;;;;;23.08;16.55;;;;;;;1.90;100.00;99421.47;10374902;28;20468;-77
2023/03/09 17:10:08;;;;;;;16.80;12.00;;;;;;;1.85;100.00;99415.81;10378063;28;20026;-77
2023/03/09 17:15:09;;;;;;;16.95;12.23;;;;;;;1.89;100.00;99406.47;10377154;28;20034;-77
2023/03/09 17:20:11;;;;;;;19.08;9.75;;;;;;;1.89;100.00;99401.13;10356449;28;20057;-77
2023/03/09 17:25:15;;;;;;;10.25;8.88;;;;;;;1.87;100.00;99387.13;10372814;28;20466;-76
2023/03/09 17:30:17;;;;;;;26.20;15.07;;;;;;;1.91;100.00;99387.59;10373132;28;20104;-75
2023/03/09 17:35:18;;;;;;;16.05;12.25;;;;;;;1.96;100.00;99399.38;10373388;28;20034;-76
2023/03/09 17:40:18;;;;;;;15.75;12.00;;;;;;;1.89;100.00;99374.44;10372253;28;20030;-77
2023/03/09 17:45:19;;;;;;;14.90;11.50;;;;;;;1.96;100.00;99402.06;10375555;28;20057;-77
2023/03/09 17:50:19;;;;;;;21.25;13.40;;;;;;;2.06;100.00;99394.63;10381641;28;20053;-77
2023/03/09 17:55:20;;;;;;;14.85;12.23;;;;;;;1.94;100.00;99382.72;10381202;28;20037;-76
2023/03/09 18:00:20;;;;;;;21.25;15.00;;;;;;;1.92;100.00;99383.94;10381151;28;20592;-76
2023/03/09 18:05:21;;;;;;;21.15;14.35;;;;;;;1.95;100.00;99392.41;10382072;28;20054;-77
2023/03/09 18:10:21;;;;;;;19.17;12.23;;;;;;;1.90;100.00;99373.41;10379411;28;20030;-77
2023/03/09 18:15:24;;;;;;;14.00;10.40;;;;;;;1.86;100.00;99385.47;10380035;28;20121;-78
2023/03/09 18:20:24;;;;;;;20.73;11.85;;;;;;;1.83;100.00;99353.78;10380386;28;20050;-78
2023/03/09 18:25:25;;;;;;;20.05;15.40;;;;;;;1.88;100.00;99355.91;10379613;28;20054;-77
2023/03/09 18:30:25;;;;;;;13.60;12.20;;;;;;;1.84;100.00;99340.25;10379149;28;20065;-77
2023/03/09 18:35:27;;;;;;;0.45;0.45;;;;;;;1.79;100.00;99334.63;10378594;28;20037;-77
2023/03/09 18:40:28;;;;;;;0.57;0.57;;;;;;;1.78;100.00;99324.13;10380177;28;20433;-76
2023/03/09 18:45:28;;;;;;;0.60;0.60;;;;;;;1.77;100.00;99322.47;10378669;28;20037;-76
2023/03/09 18:50:29;;;;;;;0.60;0.60;;;;;;;1.76;100.00;99328.84;10379410;28;20061;-75
2023/03/09 18:55:29;;;;;;;0.65;0.65;;;;;;;1.69;100.00;99299.38;10363114;28;20065;-75
2023/03/09 19:00:32;;;;;;;0.60;0.60;;;;;;;1.72;100.00;99290.16;10377227;28;20116;-75
2023/03/09 19:05:32;;;;;;;0.80;0.80;;;;;;;1.73;100.00;99270.47;10378600;28;20038;-74
2023/03/09 19:10:33;;;;;;;0.95;0.95;;;;;;;1.69;100.00;99254.00;10380715;28;20045;-75
2023/03/09 19:15:33;;;;;;;0.55;0.55;;;;;;;1.64;100.00;99235.03;10378376;28;20117;-75
2023/03/09 19:20:34;;;;;;;0.60;0.60;;;;;;;1.65;100.00;99230.53;10378574;28;20057;-74
2023/03/09 19:25:34;;;;;;;0.73;0.73;;;;;;;1.65;100.00;99228.66;10379867;28;20080;-75
2023/03/09 19:30:34;;;;;;;0.95;0.95;;;;;;;1.63;100.00;99207.53;10378190;28;20108;-74
2023/03/09 19:35:35;;;;;;;0.95;0.95;;;;;;;1.58;100.00;99204.56;10360611;28;20078;-75
2023/03/09 19:40:35;;;;;;;1.15;1.15;;;;;;;1.57;100.00;99192.25;10378861;28;20033;-75
2023/03/09 19:45:36;;;;;;;1.08;0.65;;;;;;;1.56;100.00;99182.59;10376221;28;20370;-75
2023/03/09 19:50:36;;;;;;;1.08;1.08;;;;;;;1.53;100.00;99168.75;10336110;28;20191;-74
2023/03/09 19:55:36;;;;;;;0.57;0.57;;;;;;;1.50;100.00;99161.97;10418400;28;20049;-74
2023/03/09 20:00:37;;;;;;;1.55;1.55;;;;;;;1.47;100.00;99149.00;10417557;28;20064;-74
2023/03/09 20:05:37;;;;;;;0.70;0.70;;;;;;;1.48;100.00;99136.47;10418245;28;20033;-74
2023/03/09 20:10:39;;;;;;;0.60;0.60;;;;;;;1.51;100.00;99133.44;10416522;28;20028;-74
2023/03/09 20:15:39;;;;;;;0.70;0.70;;;;;;;1.44;100.00;99122.69;10417860;28;20087;-74
2023/03/09 20:20:40;;;;;;;0.70;0.70;;;;;;;1.39;100.00;99109.88;10418071;28;20061;-74
2023/03/09 20:25:40;;;;;;;1.10;1.10;;;;;;;1.37;100.00;99095.06;10417537;28;20119;-74
2023/03/09 20:30:40;;;;;;;0.68;0.68;;;;;;;1.40;100.00;99097.38;10416436;28;20075;-74
2023/03/09 20:35:41;;;;;;;1.27;1.27;;;;;;;1.42;100.00;99089.19;10415886;28;20044;-74
2023/03/09 20:40:42;;;;;;;0.60;0.60;;;;;;;1.46;100.00;99072.63;10416484;28;20532;-75
2023/03/09 20:45:43;;;;;;;0.65;0.65;;;;;;;1.49;100.00;99077.59;10416234;28;20199;-74
2023/03/09 20:50:43;;;;;;;1.02;1.02;;;;;;;1.50;100.00;99057.09;10416432;28;20124;-74
2023/03/09 20:55:43;;;;;;;0.82;0.82;;;;;;;1.56;100.00;99062.53;10417854;28;20041;-75
2023/03/09 21:00:44;;;;;;;0.55;0.55;;;;;;;1.59;100.00;99056.00;10398623;28;20065;-75
2023/03/09 21:05:44;;;;;;;0.50;0.50;;;;;;;1.58;100.00;99030.34;10415122;28;20342;-74
2023/03/09 21:10:45;;;;;;;0.60;0.60;;;;;;;1.66;100.00;99030.25;10417424;28;20032;-75
2023/03/09 21:15:45;;;;;;;1.25;1.25;;;;;;;1.67;100.00;99021.22;10416191;28;20033;-75
2023/03/09 21:20:56;;;;;;;4.05;1.95;;;;;;;1.70;100.00;99004.84;10418232;28;20538;-75
2023/03/09 21:26:04;;;;;;;0.70;0.70;;;;;;;1.77;100.00;98996.91;10424784;28;20082;-75
2023/03/09 21:31:05;;;;;;;0.60;0.60;;;;;;;1.78;100.00;98996.69;10423594;28;20026;-74
2023/03/09 21:36:06;;;;;;;0.60;0.60;;;;;;;1.79;100.00;98994.88;10422756;28;20034;-74
2023/03/09 21:41:08;;;;;;;0.50;0.50;;;;;;;1.84;100.00;98987.13;10422943;28;20037;-74
2023/03/09 21:46:11;;;;;;;0.70;0.70;;;;;;;1.90;100.00;98967.69;10422507;28;20033;-74
2023/03/09 21:51:12;;;;;;;0.70;0.70;;;;;;;1.88;100.00;98952.88;10406378;28;20368;-75
2023/03/09 21:56:13;;;;;;;0.60;0.60;;;;;;;1.89;100.00;98936.69;10424069;28;20025;-75
2023/03/09 22:01:15;;;;;;;0.73;0.73;;;;;;;1.92;100.00;98940.81;10423024;28;20508;-77
2023/03/09 22:06:28;;;;;;;0.60;0.60;;;;;;;1.89;100.00;98922.53;10421338;28;20095;-74
2023/03/09 22:11:30;;;;;;;0.50;0.50;;;;;;;1.96;100.00;98926.91;10365879;28;20037;-75
2023/03/09 22:16:31;;;;;;;2.42;2.22;;;;;;;1.93;100.00;98907.78;10422692;28;20357;-74
2023/03/09 22:21:32;;;;;;;0.60;0.60;;;;;;;1.93;100.00;98897.09;10422607;28;20045;-77
2023/03/09 22:26:32;;;;;;;0.60;0.60;;;;;;;1.92;100.00;98885.59;10425281;28;20037;-77
2023/03/09 22:31:33;;;;;;;4.15;2.97;;;;;;;1.92;100.00;98874.09;10421286;28;20387;-76
2023/03/09 22:36:33;;;;;;;0.70;0.70;;;;;;;1.89;100.00;98864.63;10422330;28;20029;-75
2023/03/09 22:41:34;;;;;;;0.80;0.80;;;;;;;1.89;100.00;98847.78;10422165;28;20499;-75
2023/03/09 22:46:34;;;;;;;0.70;0.70;;;;;;;1.88;100.00;98843.44;10421708;28;20083;-75
2023/03/09 22:51:34;;;;;;;2.00;1.77;;;;;;;1.90;100.00;98850.25;10420492;28;20036;-76
2023/03/09 22:56:35;;;;;;;0.60;0.60;;;;;;;1.96;100.00;98843.34;10421877;28;20029;-75
2023/03/09 23:01:37;;;;;;;0.60;0.60;;;;;;;1.95;100.00;98842.50;10420703;28;20515;-74
2023/03/09 23:06:38;;;;;;;0.50;0.50;;;;;;;1.96;100.00;98838.81;10421235;28;20068;-74
2023/03/09 23:11:41;;;;;;;0.90;0.90;;;;;;;2.02;100.00;98845.22;10419782;28;20456;-73
2023/03/09 23:16:41;;;;;;;1.35;1.35;;;;;;;2.15;100.00;98850.69;10418900;28;20029;-74